createdAt,value
2023-02-26T00:00:15.252Z,100794.09
2023-02-26T00:02:43.073Z,100799.09
2023-02-26T00:05:10.321Z,100804.72
2023-02-26T00:07:37.791Z,100805.22
2023-02-26T00:10:10.111Z,100804.50
2023-02-26T00:12:37.694Z,100805.94
2023-02-26T00:15:05.908Z,100804.91
2023-02-26T00:17:41.551Z,100805.53
2023-02-26T00:20:09.279Z,100816.59
2023-02-26T00:22:36.323Z,100814.94
2023-02-26T00:25:02.987Z,100810.59
2023-02-26T00:27:30.045Z,100817.47
2023-02-26T00:29:57.108Z,100820.66
2023-02-26T00:32:24.139Z,100824.53
2023-02-26T00:34:51.380Z,100822.03
2023-02-26T00:37:26.147Z,100828.81
2023-02-26T00:40:01.374Z,100834.09
2023-02-26T00:42:28.296Z,100839.63
2023-02-26T00:44:55.209Z,100838.28
2023-02-26T00:47:52.079Z,100839.09
2023-02-26T00:50:21.155Z,100842.47
2023-02-26T00:53:00.193Z,100839.19
2023-02-26T00:55:28.436Z,100844.78
2023-02-26T00:57:55.708Z,100849.25
2023-02-26T01:00:23.625Z,100846.50
2023-02-26T01:02:51.084Z,100842.94
2023-02-26T01:05:19.806Z,100843.22
2023-02-26T01:08:12.687Z,100836.66
2023-02-26T01:10:40.041Z,100846.34
2023-02-26T01:13:07.360Z,100845.00
2023-02-26T01:15:34.402Z,100847.25
2023-02-26T01:18:14.059Z,100848.09
2023-02-26T01:20:47.865Z,100848.69
2023-02-26T01:23:18.659Z,100851.69
2023-02-26T01:25:58.852Z,100835.72
2023-02-26T01:28:26.814Z,100838.47
2023-02-26T01:30:59.537Z,100839.63
2023-02-26T01:33:30.032Z,100836.34
2023-02-26T01:36:16.100Z,100847.97
2023-02-26T01:38:52.864Z,100847.97
2023-02-26T01:41:43.786Z,100849.38
2023-02-26T01:44:31.681Z,100842.22
2023-02-26T01:47:10.674Z,100841.41
2023-02-26T01:49:38.514Z,100843.63
2023-02-26T01:52:07.536Z,100842.28
2023-02-26T01:54:38.678Z,100842.06
2023-02-26T01:57:11.097Z,100843.16
2023-02-26T01:59:42.430Z,100840.41
2023-02-26T02:02:11.878Z,100850.94
2023-02-26T02:04:39.669Z,100851.53
2023-02-26T02:07:06.586Z,100852.34
2023-02-26T02:09:33.874Z,100864.50
2023-02-26T02:12:31.313Z,100873.09
2023-02-26T02:15:30.912Z,100868.97
2023-02-26T02:18:31.526Z,100871.53
2023-02-26T02:21:07.307Z,100870.44
2023-02-26T02:23:47.542Z,100876.56
2023-02-26T02:26:20.187Z,100870.44
2023-02-26T02:29:08.386Z,100877.63
2023-02-26T02:31:43.870Z,100878.28
2023-02-26T02:34:19.516Z,100892.09
2023-02-26T02:37:01.306Z,100889.03
2023-02-26T02:40:12.937Z,100888.19
2023-02-26T02:42:46.400Z,100901.22
2023-02-26T02:45:47.725Z,100896.53
2023-02-26T02:48:22.355Z,100897.94
2023-02-26T02:50:55.654Z,100910.63
2023-02-26T02:53:49.740Z,100903.72
2023-02-26T02:56:46.875Z,100902.66
2023-02-26T02:59:32.087Z,100896.06
2023-02-26T03:02:07.678Z,100896.34
2023-02-26T03:04:34.886Z,100904.63
2023-02-26T03:07:04.313Z,100896.13
2023-02-26T03:09:31.056Z,100899.13
2023-02-26T03:11:57.754Z,100901.56
2023-02-26T03:14:26.255Z,100903.81
2023-02-26T03:17:10.658Z,100909.34
2023-02-26T03:20:09.085Z,100910.44
2023-02-26T03:23:03.595Z,100913.25
2023-02-26T03:25:33.329Z,100920.94
2023-02-26T03:28:10.177Z,100934.22
2023-02-26T03:30:55.249Z,100930.94
2023-02-26T03:33:41.149Z,100930.94
2023-02-26T03:36:28.742Z,100935.63
2023-02-26T03:39:34.493Z,100943.09
2023-02-26T03:42:12.736Z,100937.06
2023-02-26T03:45:16.763Z,100948.09
2023-02-26T03:47:48.806Z,100950.28
2023-02-26T03:50:20.235Z,100953.06
2023-02-26T03:52:54.725Z,100952.53
2023-02-26T03:55:55.726Z,100951.69
2023-02-26T03:58:40.860Z,100953.09
2023-02-26T04:01:45.692Z,100950.34
2023-02-26T04:04:23.929Z,100956.97
2023-02-26T04:06:53.644Z,100964.72
2023-02-26T04:09:21.495Z,100963.91
2023-02-26T04:11:51.387Z,100968.63
2023-02-26T04:14:18.880Z,100970.00
2023-02-26T04:16:46.375Z,100969.19
2023-02-26T04:19:14.257Z,100974.72
2023-02-26T04:21:42.477Z,100980.22
2023-02-26T04:24:11.347Z,100987.44
2023-02-26T04:26:38.070Z,100985.78
2023-02-26T04:29:04.849Z,100989.94
2023-02-26T04:31:31.948Z,100991.06
2023-02-26T04:34:02.515Z,101000.72
2023-02-26T04:36:29.460Z,100998.25
2023-02-26T04:38:58.351Z,101004.59
2023-02-26T04:41:24.980Z,101003.47
2023-02-26T04:43:51.977Z,101001.28
2023-02-26T04:46:26.158Z,101008.19
2023-02-26T04:48:53.794Z,101012.63
2023-02-26T04:51:20.704Z,101022.28
2023-02-26T04:53:50.282Z,101019.00
2023-02-26T04:56:17.151Z,101007.16
2023-02-26T04:58:45.221Z,101028.38
2023-02-26T05:01:17.448Z,101024.28
2023-02-26T05:03:44.243Z,101024.53
2023-02-26T05:06:11.307Z,101028.44
2023-02-26T05:08:42.196Z,101023.75
2023-02-26T05:11:10.589Z,101033.94
2023-02-26T05:13:37.366Z,101019.91
2023-02-26T05:16:04.534Z,101019.06
2023-02-26T05:18:32.493Z,101022.91
2023-02-26T05:20:59.855Z,101031.78
2023-02-26T05:23:27.268Z,101032.91
2023-02-26T05:25:57.852Z,101039.50
2023-02-26T05:28:25.744Z,101038.41
2023-02-26T05:30:52.869Z,101037.56
2023-02-26T05:33:20.826Z,101048.34
2023-02-26T05:35:48.224Z,101048.66
2023-02-26T05:38:15.160Z,101055.00
2023-02-26T05:40:41.875Z,101057.75
2023-02-26T05:43:09.055Z,101061.03
2023-02-26T05:45:36.115Z,101076.50
2023-02-26T05:48:03.116Z,101072.63
2023-02-26T05:50:30.575Z,101073.19
2023-02-26T05:52:58.022Z,101075.44
2023-02-26T05:55:25.021Z,101082.34
2023-02-26T05:57:51.708Z,101078.75
2023-02-26T06:00:18.863Z,101092.78
2023-02-26T06:02:46.015Z,101096.38
2023-02-26T06:05:12.813Z,101095.31
2023-02-26T06:07:39.556Z,101093.94
2023-02-26T06:10:09.210Z,101103.59
2023-02-26T06:12:36.601Z,101102.47
2023-02-26T06:15:04.922Z,101111.03
2023-02-26T06:17:31.746Z,101115.72
2023-02-26T06:19:58.655Z,101110.75
2023-02-26T06:22:25.551Z,101115.19
2023-02-26T06:24:52.257Z,101127.53
2023-02-26T06:27:18.967Z,101119.00
2023-02-26T06:29:45.659Z,101127.56
2023-02-26T06:32:12.508Z,101126.19
2023-02-26T06:34:39.485Z,101133.94
2023-02-26T06:37:06.445Z,101140.53
2023-02-26T06:39:33.217Z,101137.00
2023-02-26T06:41:59.953Z,101146.09
2023-02-26T06:44:26.764Z,101148.00
2023-02-26T06:46:53.482Z,101152.72
2023-02-26T06:49:20.296Z,101159.28
2023-02-26T06:51:46.957Z,101167.03
2023-02-26T06:54:13.692Z,101173.09
2023-02-26T06:56:40.324Z,101172.78
2023-02-26T06:59:06.904Z,101171.44
2023-02-26T07:01:33.837Z,101180.25
2023-02-26T07:04:00.656Z,101180.22
2023-02-26T07:06:28.248Z,101171.44
2023-02-26T07:08:55.832Z,101181.91
2023-02-26T07:11:22.672Z,101187.69
2023-02-26T07:13:51.487Z,101189.91
2023-02-26T07:16:18.643Z,101187.16
2023-02-26T07:18:45.445Z,101197.63
2023-02-26T07:21:12.234Z,101204.53
2023-02-26T07:23:38.990Z,101214.44
2023-02-26T07:26:05.616Z,101213.34
2023-02-26T07:28:32.206Z,101214.16
2023-02-26T07:30:59.172Z,101220.22
2023-02-26T07:33:28.419Z,101226.28
2023-02-26T07:35:55.361Z,101229.88
2023-02-26T07:38:22.066Z,101239.22
2023-02-26T07:40:49.151Z,101246.66
2023-02-26T07:43:15.843Z,101251.63
2023-02-26T07:45:42.669Z,101254.13
2023-02-26T07:48:09.399Z,101259.06
2023-02-26T07:50:36.162Z,101257.41
2023-02-26T07:53:03.282Z,101262.91
2023-02-26T07:55:30.232Z,101264.59
2023-02-26T07:57:56.990Z,101259.09
2023-02-26T08:00:23.846Z,101261.84
2023-02-26T08:02:50.638Z,101260.72
2023-02-26T08:05:17.549Z,101277.25
2023-02-26T08:07:44.250Z,101274.50
2023-02-26T08:10:11.968Z,101267.63
2023-02-26T08:12:38.838Z,101279.72
2023-02-26T08:15:06.486Z,101287.19
2023-02-26T08:17:33.235Z,101287.19
2023-02-26T08:20:00.012Z,101290.19
2023-02-26T08:22:27.023Z,101287.72
2023-02-26T08:24:53.848Z,101289.38
2023-02-26T08:27:20.456Z,101296.00
2023-02-26T08:29:47.227Z,101298.16
2023-02-26T08:32:15.744Z,101299.13
2023-02-26T08:34:42.743Z,101299.03
2023-02-26T08:37:11.735Z,101290.91
2023-02-26T08:39:39.402Z,101287.75
2023-02-26T08:42:07.321Z,101301.22
2023-02-26T08:44:34.389Z,101312.41
2023-02-26T08:47:01.275Z,101306.47
2023-02-26T08:49:28.038Z,101310.00
2023-02-26T08:51:54.697Z,101311.56
2023-02-26T08:54:21.362Z,101332.41
2023-02-26T08:56:48.167Z,101331.19
2023-02-26T08:59:15.212Z,101326.84
2023-02-26T09:01:41.942Z,101342.28
2023-02-26T09:04:08.815Z,101346.25
2023-02-26T09:06:35.817Z,101351.75
2023-02-26T09:09:02.626Z,101352.28
2023-02-26T09:11:30.806Z,101351.69
2023-02-26T09:13:59.093Z,101355.09
2023-02-26T09:16:27.103Z,101371.88
2023-02-26T09:18:56.150Z,101355.44
2023-02-26T09:21:23.406Z,101366.13
2023-02-26T09:23:50.308Z,101358.84
2023-02-26T09:26:17.153Z,101353.81
2023-02-26T09:28:43.979Z,101364.78
2023-02-26T09:31:10.740Z,101368.63
2023-02-26T09:33:37.464Z,101371.06
2023-02-26T09:36:04.696Z,101376.03
2023-02-26T09:38:31.403Z,101378.59
2023-02-26T09:41:01.352Z,101384.78
2023-02-26T09:43:37.015Z,101387.03
2023-02-26T09:46:11.553Z,101395.00
2023-02-26T09:48:39.700Z,101401.38
2023-02-26T09:51:12.751Z,101400.84
2023-02-26T09:53:41.316Z,101393.13
2023-02-26T09:56:21.639Z,101408.91
2023-02-26T09:58:49.497Z,101408.06
2023-02-26T10:01:45.119Z,101423.03
2023-02-26T10:04:20.591Z,101425.25
2023-02-26T10:06:59.324Z,101422.22
2023-02-26T10:09:53.361Z,101426.66
2023-02-26T10:12:24.679Z,101425.81
2023-02-26T10:15:00.584Z,101431.34
2023-02-26T10:17:46.313Z,101435.75
2023-02-26T10:20:21.946Z,101435.75
2023-02-26T10:23:22.240Z,101437.34
2023-02-26T10:26:05.131Z,101435.13
2023-02-26T10:28:55.761Z,101445.66
2023-02-26T10:31:30.764Z,101441.59
2023-02-26T10:34:07.346Z,101440.91
2023-02-26T10:36:53.498Z,101445.84
2023-02-26T10:39:35.397Z,101447.97
2023-02-26T10:42:17.379Z,101446.34
2023-02-26T10:45:09.903Z,101456.47
2023-02-26T10:48:09.239Z,101441.22
2023-02-26T10:50:36.163Z,101453.34
2023-02-26T10:53:04.146Z,101451.47
2023-02-26T10:55:47.238Z,101468.13
2023-02-26T10:58:20.887Z,101455.63
2023-02-26T11:00:50.943Z,101464.16
2023-02-26T11:03:34.403Z,101464.72
2023-02-26T11:06:03.911Z,101471.66
2023-02-26T11:08:46.111Z,101469.75
2023-02-26T11:11:45.680Z,101464.72
2023-02-26T11:14:14.180Z,101470.06
2023-02-26T11:16:50.355Z,101449.84
2023-02-26T11:19:20.147Z,101461.63
2023-02-26T11:21:47.958Z,101473.06
2023-02-26T11:24:26.724Z,101461.06
2023-02-26T11:26:55.419Z,101464.34
2023-02-26T11:29:24.854Z,101465.19
2023-02-26T11:31:52.591Z,101462.34
2023-02-26T11:34:23.898Z,101465.31
2023-02-26T11:36:53.185Z,101469.44
2023-02-26T11:39:24.379Z,101462.28
2023-02-26T11:41:55.830Z,101464.22
2023-02-26T11:44:37.363Z,101461.13
2023-02-26T11:47:26.803Z,101458.78
2023-02-26T11:49:55.035Z,101461.25
2023-02-26T11:52:42.150Z,101459.00
2023-02-26T11:55:27.591Z,101462.66
2023-02-26T11:57:56.105Z,101453.59
2023-02-26T12:00:35.456Z,101454.47
2023-02-26T12:03:08.399Z,101456.34
2023-02-26T12:05:36.672Z,101470.44
2023-02-26T12:08:14.223Z,101455.25
2023-02-26T12:11:09.265Z,101459.47
2023-02-26T12:13:57.323Z,101445.34
2023-02-26T12:16:27.663Z,101456.94
2023-02-26T12:19:17.625Z,101459.41
2023-02-26T12:22:07.067Z,101460.53
2023-02-26T12:24:42.218Z,101448.88
2023-02-26T12:27:14.310Z,101458.88
2023-02-26T12:30:01.334Z,101453.06
2023-02-26T12:32:28.245Z,101445.56
2023-02-26T12:35:12.490Z,101445.56
2023-02-26T12:37:48.780Z,101437.78
2023-02-26T12:40:37.274Z,101437.78
2023-02-26T12:43:36.309Z,101441.72
2023-02-26T12:46:08.604Z,101442.31
2023-02-26T12:48:59.915Z,101451.75
2023-02-26T12:51:47.271Z,101442.84
2023-02-26T12:54:47.410Z,101441.81
2023-02-26T12:57:32.791Z,101441.22
2023-02-26T13:00:12.790Z,101435.88
2023-02-26T13:02:51.383Z,101442.25
2023-02-26T13:05:42.730Z,101445.03
2023-02-26T13:08:22.365Z,101441.56
2023-02-26T13:11:07.411Z,101449.91
2023-02-26T13:13:52.586Z,101447.38
2023-02-26T13:16:40.853Z,101448.75
2023-02-26T13:19:26.438Z,101444.72
2023-02-26T13:22:16.158Z,101444.63
2023-02-26T13:24:48.816Z,101443.28
2023-02-26T13:27:17.399Z,101450.50
2023-02-26T13:29:53.153Z,101449.31
2023-02-26T13:32:25.099Z,101445.25
2023-02-26T13:34:58.689Z,101445.84
2023-02-26T13:37:35.307Z,101433.25
2023-02-26T13:40:21.646Z,101437.91
2023-02-26T13:43:00.600Z,101431.47
2023-02-26T13:46:04.059Z,101439.25
2023-02-26T13:48:46.017Z,101443.16
2023-02-26T13:51:35.018Z,101445.63
2023-02-26T13:54:08.940Z,101434.91
2023-02-26T13:56:35.816Z,101435.94
2023-02-26T13:59:03.921Z,101442.09
2023-02-26T14:01:50.607Z,101440.66
2023-02-26T14:04:22.277Z,101450.94
2023-02-26T14:06:59.208Z,101440.75
2023-02-26T14:09:28.864Z,101443.81
2023-02-26T14:11:55.414Z,101446.38
2023-02-26T14:14:22.271Z,101451.91
2023-02-26T14:16:53.605Z,101447.41
2023-02-26T14:19:26.320Z,101446.06
2023-02-26T14:22:00.710Z,101454.38
2023-02-26T14:24:38.514Z,101448.31
2023-02-26T14:27:11.142Z,101453.34
2023-02-26T14:30:10.090Z,101449.41
2023-02-26T14:32:48.782Z,101457.81
2023-02-26T14:35:35.911Z,101457.75
2023-02-26T14:38:07.900Z,101464.88
2023-02-26T14:41:13.241Z,101458.81
2023-02-26T14:43:41.488Z,101459.63
2023-02-26T14:46:10.354Z,101462.09
2023-02-26T14:48:38.307Z,101468.03
2023-02-26T14:51:26.993Z,101465.06
2023-02-26T14:54:00.228Z,101469.41
2023-02-26T15:03:03.282Z,101473.69
2023-02-26T15:05:38.778Z,101466.31
2023-02-26T15:20:42.325Z,101464.22
2023-02-26T15:23:43.479Z,101469.31
2023-02-26T15:26:21.101Z,101478.78
2023-02-26T15:28:49.191Z,101468.50
2023-02-26T15:31:19.144Z,101477.94
2023-02-26T15:33:49.545Z,101476.50
2023-02-26T15:36:21.722Z,101482.91
2023-02-26T15:38:53.602Z,101484.16
2023-02-26T15:41:23.490Z,101485.91
2023-02-26T15:43:55.661Z,101491.72
2023-02-26T15:46:37.903Z,101489.28
2023-02-26T15:49:15.788Z,101485.75
2023-02-26T15:51:44.963Z,101498.38
2023-02-26T15:54:17.864Z,101501.84
2023-02-26T15:56:44.704Z,101499.66
2023-02-26T15:59:17.209Z,101499.72
2023-02-26T16:01:45.207Z,101503.91
2023-02-26T16:04:15.757Z,101500.25
2023-02-26T16:06:54.367Z,101497.47
2023-02-26T16:09:30.943Z,101502.22
2023-02-26T16:12:07.883Z,101500.63
2023-02-26T16:14:38.626Z,101497.53
2023-02-26T16:17:08.054Z,101501.97
2023-02-26T16:19:41.864Z,101491.56
2023-02-26T16:22:19.534Z,101496.44
2023-02-26T16:24:53.581Z,101506.38
2023-02-26T16:27:21.206Z,101507.53
2023-02-26T16:29:52.897Z,101513.06
2023-02-26T16:32:20.303Z,101512.75
2023-02-26T16:34:53.396Z,101513.31
2023-02-26T16:37:34.403Z,101519.13
2023-02-26T16:40:21.063Z,101514.09
2023-02-26T16:42:50.766Z,101523.00
2023-02-26T16:45:49.430Z,101521.84
2023-02-26T16:48:22.226Z,101527.34
2023-02-26T16:51:06.295Z,101522.44
2023-02-26T16:53:36.668Z,101539.63
2023-02-26T16:56:04.950Z,101535.13
2023-02-26T16:58:32.938Z,101541.31
2023-02-26T17:01:08.896Z,101541.56
2023-02-26T17:03:37.879Z,101541.84
2023-02-26T17:06:16.610Z,101534.34
2023-02-26T17:08:46.489Z,101542.59
2023-02-26T17:11:48.856Z,101538.72
2023-02-26T17:14:22.551Z,101541.13
2023-02-26T17:16:50.467Z,101544.22
2023-02-26T17:19:18.305Z,101543.16
2023-02-26T17:21:54.175Z,101536.19
2023-02-26T17:24:26.747Z,101548.13
2023-02-26T17:27:12.141Z,101557.44
2023-02-26T17:29:43.985Z,101552.38
2023-02-26T17:32:38.575Z,101566.72
2023-02-26T17:35:06.293Z,101553.06
2023-02-26T17:37:35.149Z,101562.81
2023-02-26T17:40:03.872Z,101559.06
2023-02-26T17:42:30.553Z,101564.41
2023-02-26T17:44:57.481Z,101567.63
2023-02-26T17:47:26.272Z,101569.38
2023-02-26T17:49:54.168Z,101563.00
2023-02-26T17:52:21.111Z,101564.66
2023-02-26T17:54:48.076Z,101570.25
2023-02-26T17:57:17.650Z,101568.28
2023-02-26T17:59:44.564Z,101571.63
2023-02-26T18:02:23.251Z,101576.41
2023-02-26T18:04:50.028Z,101582.00
2023-02-26T18:07:18.043Z,101579.81
2023-02-26T18:09:46.415Z,101578.72
2023-02-26T18:12:23.139Z,101581.00
2023-02-26T18:14:50.325Z,101582.59
2023-02-26T18:17:25.261Z,101594.06
2023-02-26T18:19:52.110Z,101585.19
2023-02-26T18:22:24.052Z,101589.91
2023-02-26T18:24:51.614Z,101598.22
2023-02-26T18:27:26.213Z,101588.28
2023-02-26T18:29:54.035Z,101597.13
2023-02-26T18:32:23.826Z,101600.50
2023-02-26T18:34:51.240Z,101606.09
2023-02-26T18:37:22.300Z,101596.44
2023-02-26T18:39:49.156Z,101604.50
2023-02-26T18:42:24.800Z,101599.47
2023-02-26T18:44:52.955Z,101606.44
2023-02-26T18:47:21.443Z,101607.22
2023-02-26T18:49:50.040Z,101603.59
2023-02-26T18:52:17.026Z,101610.00
2023-02-26T18:54:43.730Z,101613.34
2023-02-26T18:57:10.684Z,101612.22
2023-02-26T18:59:37.406Z,101611.66
2023-02-26T19:02:06.064Z,101609.78
2023-02-26T19:04:33.851Z,101613.91
2023-02-26T19:07:00.767Z,101614.69
2023-02-26T19:09:28.848Z,101624.44
2023-02-26T19:11:58.632Z,101617.19
2023-02-26T19:14:25.727Z,101619.44
2023-02-26T19:16:52.628Z,101625.97
2023-02-26T19:19:19.392Z,101621.66
2023-02-26T19:21:46.190Z,101631.13
2023-02-26T19:24:13.926Z,101623.34
2023-02-26T19:26:42.090Z,101632.75
2023-02-26T19:29:11.627Z,101633.84
2023-02-26T19:31:38.326Z,101636.09
2023-02-26T19:34:05.170Z,101633.25
2023-02-26T19:36:33.675Z,101639.97
2023-02-26T19:39:01.677Z,101637.13
2023-02-26T19:41:28.712Z,101643.25
2023-02-26T19:43:55.970Z,101649.88
2023-02-26T19:46:23.247Z,101653.25
2023-02-26T19:48:50.776Z,101656.03
2023-02-26T19:51:18.736Z,101659.91
2023-02-26T19:53:45.375Z,101659.31
2023-02-26T19:56:12.612Z,101665.44
2023-02-26T19:58:39.472Z,101667.38
2023-02-26T20:01:06.768Z,101672.72
2023-02-26T20:03:33.688Z,101666.28
2023-02-26T20:06:00.923Z,101667.44
2023-02-26T20:08:29.583Z,101673.25
2023-02-26T20:10:58.886Z,101677.72
2023-02-26T20:13:29.834Z,101678.28
2023-02-26T20:16:00.830Z,101683.25
2023-02-26T20:18:30.805Z,101691.34
2023-02-26T20:20:59.892Z,101687.63
2023-02-26T20:23:27.200Z,101693.56
2023-02-26T20:25:58.211Z,101695.44
2023-02-26T20:28:25.663Z,101701.81
2023-02-26T20:30:53.048Z,101700.47
2023-02-26T20:33:21.103Z,101690.53
2023-02-26T20:35:48.216Z,101696.25
2023-02-26T20:38:17.683Z,101697.69
2023-02-26T20:40:46.206Z,101700.16
2023-02-26T20:43:13.938Z,101704.38
2023-02-26T20:45:41.914Z,101702.16
2023-02-26T20:48:09.988Z,101705.59
2023-02-26T20:50:37.331Z,101705.09
2023-02-26T20:53:05.284Z,101709.84
2023-02-26T20:55:32.222Z,101715.91
2023-02-26T20:57:58.995Z,101716.38
2023-02-26T21:00:26.058Z,101714.16
2023-02-26T21:02:52.750Z,101711.41
2023-02-26T21:05:19.840Z,101710.63
2023-02-26T21:07:46.799Z,101713.63
2023-02-26T21:10:16.570Z,101714.91
2023-02-26T21:12:44.021Z,101720.88
2023-02-26T21:15:12.303Z,101726.72
2023-02-26T21:17:41.256Z,101725.03
2023-02-26T21:20:10.289Z,101729.88
2023-02-26T21:22:36.970Z,101742.22
2023-02-26T21:25:08.365Z,101731.22
2023-02-26T21:27:36.651Z,101732.94
2023-02-26T21:30:08.080Z,101730.22
2023-02-26T21:32:35.272Z,101732.50
2023-02-26T21:35:02.137Z,101728.09
2023-02-26T21:37:29.375Z,101734.50
2023-02-26T21:39:56.431Z,101737.03
2023-02-26T21:42:23.646Z,101732.06
2023-02-26T21:44:50.455Z,101735.72
2023-02-26T21:47:17.191Z,101733.22
2023-02-26T21:49:44.092Z,101734.34
2023-02-26T21:52:12.248Z,101732.47
2023-02-26T21:54:39.288Z,101733.31
2023-02-26T21:57:06.181Z,101728.91
2023-02-26T21:59:33.635Z,101730.59
2023-02-26T22:02:00.594Z,101729.22
2023-02-26T22:04:27.525Z,101727.28
2023-02-26T22:06:54.263Z,101727.31
2023-02-26T22:09:21.388Z,101730.66
2023-02-26T22:11:48.227Z,101731.50
2023-02-26T22:14:15.692Z,101719.91
2023-02-26T22:16:42.346Z,101723.50
2023-02-26T22:19:09.157Z,101731.81
2023-02-26T22:21:35.820Z,101723.22
2023-02-26T22:24:03.803Z,101720.75
2023-02-26T22:26:30.928Z,101718.56
2023-02-26T22:29:00.130Z,101714.97
2023-02-26T22:31:31.903Z,101720.78
2023-02-26T22:33:59.709Z,101718.56
2023-02-26T22:36:27.672Z,101709.75
2023-02-26T22:38:54.662Z,101719.16
2023-02-26T22:41:21.492Z,101722.78
2023-02-26T22:43:48.802Z,101728.59
2023-02-26T22:46:17.070Z,101719.75
2023-02-26T22:48:44.301Z,101724.72
2023-02-26T22:51:10.915Z,101727.53
2023-02-26T22:53:37.801Z,101726.13
2023-02-26T22:56:04.794Z,101721.72
2023-02-26T22:58:31.454Z,101731.41
2023-02-26T23:01:00.121Z,101723.66
2023-02-26T23:03:27.033Z,101724.22
2023-02-26T23:05:53.711Z,101732.78
2023-02-26T23:08:20.493Z,101729.75
2023-02-26T23:10:47.143Z,101721.47
2023-02-26T23:13:14.638Z,101729.75
2023-02-26T23:15:41.469Z,101737.47
2023-02-26T23:18:08.206Z,101734.72
2023-02-26T23:20:34.999Z,101736.41
2023-02-26T23:23:01.971Z,101735.03
2023-02-26T23:25:28.874Z,101733.63
2023-02-26T23:27:55.672Z,101734.16
2023-02-26T23:30:22.822Z,101736.94
2023-02-26T23:32:50.317Z,101738.06
2023-02-26T23:35:17.401Z,101738.03
2023-02-26T23:37:44.196Z,101738.63
2023-02-26T23:40:14.548Z,101744.94
2023-02-26T23:42:42.328Z,101741.88
2023-02-26T23:45:10.512Z,101745.22
2023-02-26T23:47:38.030Z,101744.41
2023-02-26T23:50:06.766Z,101741.34
2023-02-26T23:52:34.407Z,101746.88
2023-02-26T23:55:02.507Z,101741.34
2023-02-26T23:57:29.658Z,101744.66
2023-02-26T23:59:56.649Z,101749.09
